sensor_id;sensor_type;location;lat;lon;timestamp;P1;durP1;ratioP1;P2;durP2;ratioP2
20181;SDS011;10250;50.756;6.172;2022-07-22T00:01:59;11.03;;;3.17;;
20181;SDS011;10250;50.756;6.172;2022-07-22T00:04:00;11.47;;;3.20;;
20181;SDS011;10250;50.756;6.172;2022-07-22T00:06:02;12.97;;;3.30;;
20181;SDS011;10250;50.756;6.172;2022-07-22T00:08:03;10.63;;;2.90;;
20181;SDS011;10250;50.756;6.172;2022-07-22T00:10:05;12.77;;;3.00;;
20181;SDS011;10250;50.756;6.172;2022-07-22T00:12:07;11.63;;;3.13;;
20181;SDS011;10250;50.756;6.172;2022-07-22T00:14:08;11.43;;;3.00;;
20181;SDS011;10250;50.756;6.172;2022-07-22T00:16:09;9.60;;;3.00;;
20181;SDS011;10250;50.756;6.172;2022-07-22T00:18:09;13.60;;;3.70;;
20181;SDS011;10250;50.756;6.172;2022-07-22T00:20:10;11.50;;;3.00;;
20181;SDS011;10250;50.756;6.172;2022-07-22T00:22:10;11.33;;;3.27;;
20181;SDS011;10250;50.756;6.172;2022-07-22T00:24:11;12.93;;;3.20;;
20181;SDS011;10250;50.756;6.172;2022-07-22T00:26:12;12.40;;;3.03;;
20181;SDS011;10250;50.756;6.172;2022-07-22T00:28:13;13.70;;;3.23;;
20181;SDS011;10250;50.756;6.172;2022-07-22T00:30:13;12.47;;;3.63;;
20181;SDS011;10250;50.756;6.172;2022-07-22T00:32:14;11.83;;;3.20;;
20181;SDS011;10250;50.756;6.172;2022-07-22T00:34:15;11.27;;;2.80;;
20181;SDS011;10250;50.756;6.172;2022-07-22T00:36:15;13.47;;;3.30;;
20181;SDS011;10250;50.756;6.172;2022-07-22T00:38:16;12.77;;;3.40;;
20181;SDS011;10250;50.756;6.172;2022-07-22T00:40:16;11.20;;;3.30;;
20181;SDS011;10250;50.756;6.172;2022-07-22T00:42:17;11.67;;;2.90;;
20181;SDS011;10250;50.756;6.172;2022-07-22T00:44:18;10.43;;;2.90;;
20181;SDS011;10250;50.756;6.172;2022-07-22T00:46:18;10.67;;;2.67;;
20181;SDS011;10250;50.756;6.172;2022-07-22T00:48:19;12.87;;;3.30;;
20181;SDS011;10250;50.756;6.172;2022-07-22T00:50:20;13.10;;;3.03;;
20181;SDS011;10250;50.756;6.172;2022-07-22T00:52:21;10.70;;;2.73;;
20181;SDS011;10250;50.756;6.172;2022-07-22T00:54:22;9.93;;;3.00;;
20181;SDS011;10250;50.756;6.172;2022-07-22T00:56:23;10.07;;;2.47;;
20181;SDS011;10250;50.756;6.172;2022-07-22T00:58:24;11.03;;;3.30;;
20181;SDS011;10250;50.756;6.172;2022-07-22T01:00:25;11.03;;;3.00;;
20181;SDS011;10250;50.756;6.172;2022-07-22T01:02:26;11.53;;;2.87;;
20181;SDS011;10250;50.756;6.172;2022-07-22T01:04:26;14.73;;;3.27;;
20181;SDS011;10250;50.756;6.172;2022-07-22T01:06:28;13.10;;;3.60;;
20181;SDS011;10250;50.756;6.172;2022-07-22T01:08:29;10.57;;;3.20;;
20181;SDS011;10250;50.756;6.172;2022-07-22T01:10:31;12.13;;;3.03;;
20181;SDS011;10250;50.756;6.172;2022-07-22T01:12:31;11.57;;;3.27;;
20181;SDS011;10250;50.756;6.172;2022-07-22T01:14:32;13.20;;;3.90;;
20181;SDS011;10250;50.756;6.172;2022-07-22T01:16:33;12.73;;;3.27;;
20181;SDS011;10250;50.756;6.172;2022-07-22T01:18:34;14.13;;;3.97;;
20181;SDS011;10250;50.756;6.172;2022-07-22T01:20:36;12.30;;;3.20;;
20181;SDS011;10250;50.756;6.172;2022-07-22T01:22:36;12.97;;;3.33;;
20181;SDS011;10250;50.756;6.172;2022-07-22T01:24:37;13.80;;;3.93;;
20181;SDS011;10250;50.756;6.172;2022-07-22T01:26:38;12.43;;;3.63;;
20181;SDS011;10250;50.756;6.172;2022-07-22T01:28:39;12.43;;;3.40;;
20181;SDS011;10250;50.756;6.172;2022-07-22T01:30:40;15.27;;;3.33;;
20181;SDS011;10250;50.756;6.172;2022-07-22T01:32:41;14.27;;;3.40;;
20181;SDS011;10250;50.756;6.172;2022-07-22T01:34:41;15.10;;;3.60;;
20181;SDS011;10250;50.756;6.172;2022-07-22T01:36:43;12.60;;;3.30;;
20181;SDS011;10250;50.756;6.172;2022-07-22T01:38:44;11.57;;;3.37;;
20181;SDS011;10250;50.756;6.172;2022-07-22T01:40:45;13.43;;;3.67;;
20181;SDS011;10250;50.756;6.172;2022-07-22T01:42:46;12.67;;;3.23;;
20181;SDS011;10250;50.756;6.172;2022-07-22T01:44:47;15.60;;;3.30;;
20181;SDS011;10250;50.756;6.172;2022-07-22T01:46:48;11.67;;;3.30;;
20181;SDS011;10250;50.756;6.172;2022-07-22T01:48:50;13.17;;;3.20;;
20181;SDS011;10250;50.756;6.172;2022-07-22T01:50:51;11.00;;;3.33;;
20181;SDS011;10250;50.756;6.172;2022-07-22T01:52:52;10.80;;;3.43;;
20181;SDS011;10250;50.756;6.172;2022-07-22T01:54:53;12.53;;;3.10;;
20181;SDS011;10250;50.756;6.172;2022-07-22T01:56:54;10.97;;;2.90;;
20181;SDS011;10250;50.756;6.172;2022-07-22T01:58:54;10.47;;;2.97;;
20181;SDS011;10250;50.756;6.172;2022-07-22T02:00:55;10.33;;;2.57;;
20181;SDS011;10250;50.756;6.172;2022-07-22T02:02:56;10.23;;;2.80;;
20181;SDS011;10250;50.756;6.172;2022-07-22T02:04:56;11.13;;;3.20;;
20181;SDS011;10250;50.756;6.172;2022-07-22T02:06:57;6.60;;;2.07;;
20181;SDS011;10250;50.756;6.172;2022-07-22T02:08:57;10.50;;;2.73;;
20181;SDS011;10250;50.756;6.172;2022-07-22T02:10:58;9.80;;;2.80;;
20181;SDS011;10250;50.756;6.172;2022-07-22T02:12:59;9.17;;;2.30;;
20181;SDS011;10250;50.756;6.172;2022-07-22T02:15:00;9.03;;;2.30;;
20181;SDS011;10250;50.756;6.172;2022-07-22T02:17:00;9.83;;;2.60;;
20181;SDS011;10250;50.756;6.172;2022-07-22T02:19:01;9.07;;;2.30;;
20181;SDS011;10250;50.756;6.172;2022-07-22T02:21:02;9.17;;;2.50;;
20181;SDS011;10250;50.756;6.172;2022-07-22T02:23:03;7.93;;;2.10;;
20181;SDS011;10250;50.756;6.172;2022-07-22T02:25:04;9.10;;;2.30;;
20181;SDS011;10250;50.756;6.172;2022-07-22T02:27:05;9.50;;;2.47;;
20181;SDS011;10250;50.756;6.172;2022-07-22T02:29:06;11.53;;;3.00;;
20181;SDS011;10250;50.756;6.172;2022-07-22T02:31:06;6.87;;;2.23;;
20181;SDS011;10250;50.756;6.172;2022-07-22T02:33:07;8.70;;;2.50;;
20181;SDS011;10250;50.756;6.172;2022-07-22T02:35:07;11.00;;;2.50;;
20181;SDS011;10250;50.756;6.172;2022-07-22T02:37:08;10.23;;;2.57;;
20181;SDS011;10250;50.756;6.172;2022-07-22T02:39:09;10.50;;;2.87;;
20181;SDS011;10250;50.756;6.172;2022-07-22T02:41:09;9.77;;;2.63;;
20181;SDS011;10250;50.756;6.172;2022-07-22T02:43:10;13.20;;;3.20;;
20181;SDS011;10250;50.756;6.172;2022-07-22T02:45:11;10.77;;;2.83;;
20181;SDS011;10250;50.756;6.172;2022-07-22T02:47:11;10.47;;;2.40;;
20181;SDS011;10250;50.756;6.172;2022-07-22T02:49:12;10.63;;;2.83;;
20181;SDS011;10250;50.756;6.172;2022-07-22T02:51:12;11.17;;;3.00;;
20181;SDS011;10250;50.756;6.172;2022-07-22T02:53:13;12.87;;;3.10;;
20181;SDS011;10250;50.756;6.172;2022-07-22T02:55:14;10.70;;;2.43;;
20181;SDS011;10250;50.756;6.172;2022-07-22T02:57:15;12.30;;;2.80;;
20181;SDS011;10250;50.756;6.172;2022-07-22T02:59:16;9.87;;;2.70;;
20181;SDS011;10250;50.756;6.172;2022-07-22T03:01:16;10.33;;;2.80;;
20181;SDS011;10250;50.756;6.172;2022-07-22T03:03:18;9.43;;;2.70;;
20181;SDS011;10250;50.756;6.172;2022-07-22T03:05:19;11.77;;;2.60;;
20181;SDS011;10250;50.756;6.172;2022-07-22T03:07:19;9.60;;;2.20;;
20181;SDS011;10250;50.756;6.172;2022-07-22T03:09:20;11.10;;;2.87;;
20181;SDS011;10250;50.756;6.172;2022-07-22T03:11:21;9.10;;;2.40;;
20181;SDS011;10250;50.756;6.172;2022-07-22T03:13:21;7.00;;;1.93;;
20181;SDS011;10250;50.756;6.172;2022-07-22T03:15:22;10.73;;;2.47;;
20181;SDS011;10250;50.756;6.172;2022-07-22T03:17:22;8.33;;;2.30;;
20181;SDS011;10250;50.756;6.172;2022-07-22T03:19:23;10.73;;;2.63;;
20181;SDS011;10250;50.756;6.172;2022-07-22T03:21:24;9.37;;;2.60;;
20181;SDS011;10250;50.756;6.172;2022-07-22T03:23:24;9.03;;;2.40;;
20181;SDS011;10250;50.756;6.172;2022-07-22T03:25:25;9.00;;;2.33;;
20181;SDS011;10250;50.756;6.172;2022-07-22T03:27:25;10.27;;;2.90;;
20181;SDS011;10250;50.756;6.172;2022-07-22T03:29:26;10.13;;;2.50;;
20181;SDS011;10250;50.756;6.172;2022-07-22T03:31:27;11.50;;;3.00;;
20181;SDS011;10250;50.756;6.172;2022-07-22T03:33:27;9.40;;;2.93;;
20181;SDS011;10250;50.756;6.172;2022-07-22T03:35:28;9.50;;;2.40;;
20181;SDS011;10250;50.756;6.172;2022-07-22T03:37:28;9.37;;;2.70;;
20181;SDS011;10250;50.756;6.172;2022-07-22T03:39:29;8.33;;;2.47;;
20181;SDS011;10250;50.756;6.172;2022-07-22T03:41:30;9.30;;;2.67;;
20181;SDS011;10250;50.756;6.172;2022-07-22T03:43:30;13.97;;;3.33;;
20181;SDS011;10250;50.756;6.172;2022-07-22T03:45:31;10.37;;;3.00;;
20181;SDS011;10250;50.756;6.172;2022-07-22T03:47:32;9.53;;;2.83;;
20181;SDS011;10250;50.756;6.172;2022-07-22T03:49:32;11.13;;;3.23;;
20181;SDS011;10250;50.756;6.172;2022-07-22T03:51:33;9.87;;;2.40;;
20181;SDS011;10250;50.756;6.172;2022-07-22T03:53:33;11.00;;;2.90;;
20181;SDS011;10250;50.756;6.172;2022-07-22T03:55:34;9.63;;;2.60;;
20181;SDS011;10250;50.756;6.172;2022-07-22T03:57:35;12.33;;;2.80;;
20181;SDS011;10250;50.756;6.172;2022-07-22T03:59:36;11.70;;;2.73;;
20181;SDS011;10250;50.756;6.172;2022-07-22T04:01:37;9.13;;;2.30;;
20181;SDS011;10250;50.756;6.172;2022-07-22T04:03:37;12.37;;;2.93;;
20181;SDS011;10250;50.756;6.172;2022-07-22T04:05:38;11.47;;;2.67;;
20181;SDS011;10250;50.756;6.172;2022-07-22T04:07:38;10.50;;;2.73;;
20181;SDS011;10250;50.756;6.172;2022-07-22T04:09:39;9.00;;;2.23;;
20181;SDS011;10250;50.756;6.172;2022-07-22T04:11:40;9.83;;;2.20;;
20181;SDS011;10250;50.756;6.172;2022-07-22T04:13:40;8.40;;;2.30;;
20181;SDS011;10250;50.756;6.172;2022-07-22T04:15:41;10.40;;;2.77;;
20181;SDS011;10250;50.756;6.172;2022-07-22T04:17:41;9.03;;;2.30;;
20181;SDS011;10250;50.756;6.172;2022-07-22T04:19:42;9.40;;;2.40;;
20181;SDS011;10250;50.756;6.172;2022-07-22T04:21:42;10.97;;;2.30;;
20181;SDS011;10250;50.756;6.172;2022-07-22T04:23:43;10.80;;;2.63;;
20181;SDS011;10250;50.756;6.172;2022-07-22T04:25:44;10.70;;;2.97;;
20181;SDS011;10250;50.756;6.172;2022-07-22T04:27:45;10.43;;;2.80;;
20181;SDS011;10250;50.756;6.172;2022-07-22T04:29:46;9.80;;;2.37;;
20181;SDS011;10250;50.756;6.172;2022-07-22T04:31:46;8.23;;;2.23;;
20181;SDS011;10250;50.756;6.172;2022-07-22T04:33:47;8.80;;;2.23;;
20181;SDS011;10250;50.756;6.172;2022-07-22T04:35:47;9.33;;;2.30;;
20181;SDS011;10250;50.756;6.172;2022-07-22T04:37:48;8.47;;;2.23;;
20181;SDS011;10250;50.756;6.172;2022-07-22T04:39:49;8.80;;;2.47;;
20181;SDS011;10250;50.756;6.172;2022-07-22T04:41:49;7.50;;;2.23;;
20181;SDS011;10250;50.756;6.172;2022-07-22T04:43:50;9.27;;;2.60;;
20181;SDS011;10250;50.756;6.172;2022-07-22T04:45:50;6.87;;;2.23;;
20181;SDS011;10250;50.756;6.172;2022-07-22T04:47:51;8.67;;;2.20;;
20181;SDS011;10250;50.756;6.172;2022-07-22T04:49:51;8.93;;;2.30;;
20181;SDS011;10250;50.756;6.172;2022-07-22T04:51:52;7.77;;;2.23;;
20181;SDS011;10250;50.756;6.172;2022-07-22T04:53:54;7.77;;;2.30;;
20181;SDS011;10250;50.756;6.172;2022-07-22T04:55:55;8.40;;;2.07;;
20181;SDS011;10250;50.756;6.172;2022-07-22T04:57:56;11.87;;;2.70;;
20181;SDS011;10250;50.756;6.172;2022-07-22T04:59:56;7.63;;;2.30;;
20181;SDS011;10250;50.756;6.172;2022-07-22T05:01:57;12.30;;;2.67;;
20181;SDS011;10250;50.756;6.172;2022-07-22T05:03:57;13.40;;;3.40;;
20181;SDS011;10250;50.756;6.172;2022-07-22T05:05:58;10.10;;;2.47;;
20181;SDS011;10250;50.756;6.172;2022-07-22T05:07:59;10.37;;;2.77;;
20181;SDS011;10250;50.756;6.172;2022-07-22T05:09:59;11.07;;;2.77;;
20181;SDS011;10250;50.756;6.172;2022-07-22T05:12:00;10.73;;;2.70;;
20181;SDS011;10250;50.756;6.172;2022-07-22T05:14:00;10.37;;;2.33;;
20181;SDS011;10250;50.756;6.172;2022-07-22T05:16:02;9.57;;;2.57;;
20181;SDS011;10250;50.756;6.172;2022-07-22T05:18:04;7.80;;;2.37;;
20181;SDS011;10250;50.756;6.172;2022-07-22T05:20:04;10.77;;;2.93;;
20181;SDS011;10250;50.756;6.172;2022-07-22T05:22:06;8.03;;;2.23;;
20181;SDS011;10250;50.756;6.172;2022-07-22T05:24:07;10.10;;;2.90;;
20181;SDS011;10250;50.756;6.172;2022-07-22T05:26:08;10.33;;;2.33;;
20181;SDS011;10250;50.756;6.172;2022-07-22T05:28:09;10.23;;;2.60;;
20181;SDS011;10250;50.756;6.172;2022-07-22T05:30:09;8.43;;;2.10;;
20181;SDS011;10250;50.756;6.172;2022-07-22T05:32:11;10.77;;;2.30;;
20181;SDS011;10250;50.756;6.172;2022-07-22T05:34:11;8.97;;;2.30;;
20181;SDS011;10250;50.756;6.172;2022-07-22T05:36:12;7.37;;;1.90;;
20181;SDS011;10250;50.756;6.172;2022-07-22T05:38:12;9.07;;;2.53;;
20181;SDS011;10250;50.756;6.172;2022-07-22T05:40:13;7.87;;;2.10;;
20181;SDS011;10250;50.756;6.172;2022-07-22T05:42:14;7.17;;;1.97;;
20181;SDS011;10250;50.756;6.172;2022-07-22T05:44:15;8.27;;;2.20;;
20181;SDS011;10250;50.756;6.172;2022-07-22T05:46:15;8.23;;;2.20;;
20181;SDS011;10250;50.756;6.172;2022-07-22T05:48:16;11.60;;;2.67;;
20181;SDS011;10250;50.756;6.172;2022-07-22T05:50:16;9.70;;;2.40;;
20181;SDS011;10250;50.756;6.172;2022-07-22T05:52:17;9.53;;;2.40;;
20181;SDS011;10250;50.756;6.172;2022-07-22T05:54:17;9.50;;;2.43;;
20181;SDS011;10250;50.756;6.172;2022-07-22T05:56:18;10.33;;;2.67;;
20181;SDS011;10250;50.756;6.172;2022-07-22T05:58:19;7.77;;;2.43;;
20181;SDS011;10250;50.756;6.172;2022-07-22T06:00:19;10.43;;;2.77;;
20181;SDS011;10250;50.756;6.172;2022-07-22T06:02:20;8.10;;;2.27;;
20181;SDS011;10250;50.756;6.172;2022-07-22T06:04:21;10.03;;;2.27;;
20181;SDS011;10250;50.756;6.172;2022-07-22T06:06:21;10.43;;;2.40;;
20181;SDS011;10250;50.756;6.172;2022-07-22T06:08:22;9.67;;;2.53;;
20181;SDS011;10250;50.756;6.172;2022-07-22T06:10:22;8.90;;;2.50;;
20181;SDS011;10250;50.756;6.172;2022-07-22T06:12:23;8.03;;;2.07;;
20181;SDS011;10250;50.756;6.172;2022-07-22T06:14:24;10.40;;;2.43;;
20181;SDS011;10250;50.756;6.172;2022-07-22T06:16:24;10.53;;;3.07;;
20181;SDS011;10250;50.756;6.172;2022-07-22T06:18:25;9.07;;;2.40;;
20181;SDS011;10250;50.756;6.172;2022-07-22T06:20:26;9.37;;;2.70;;
20181;SDS011;10250;50.756;6.172;2022-07-22T06:22:27;9.00;;;2.40;;
20181;SDS011;10250;50.756;6.172;2022-07-22T06:24:27;10.13;;;2.67;;
20181;SDS011;10250;50.756;6.172;2022-07-22T06:26:28;10.50;;;2.63;;
20181;SDS011;10250;50.756;6.172;2022-07-22T06:28:28;8.57;;;2.47;;
20181;SDS011;10250;50.756;6.172;2022-07-22T06:30:29;8.70;;;2.30;;
20181;SDS011;10250;50.756;6.172;2022-07-22T06:32:30;8.00;;;2.33;;
20181;SDS011;10250;50.756;6.172;2022-07-22T06:34:30;9.60;;;2.33;;
20181;SDS011;10250;50.756;6.172;2022-07-22T06:36:31;8.87;;;2.10;;
20181;SDS011;10250;50.756;6.172;2022-07-22T06:38:32;9.00;;;2.20;;
20181;SDS011;10250;50.756;6.172;2022-07-22T06:40:33;9.93;;;2.60;;
20181;SDS011;10250;50.756;6.172;2022-07-22T06:42:34;6.90;;;2.10;;
20181;SDS011;10250;50.756;6.172;2022-07-22T06:44:35;12.93;;;2.40;;
20181;SDS011;10250;50.756;6.172;2022-07-22T06:46:35;7.97;;;2.17;;
20181;SDS011;10250;50.756;6.172;2022-07-22T06:48:36;9.97;;;3.03;;
20181;SDS011;10250;50.756;6.172;2022-07-22T06:50:37;14.73;;;3.90;;
20181;SDS011;10250;50.756;6.172;2022-07-22T06:52:38;13.73;;;3.60;;
20181;SDS011;10250;50.756;6.172;2022-07-22T06:54:39;14.77;;;4.87;;
20181;SDS011;10250;50.756;6.172;2022-07-22T06:56:40;16.90;;;4.47;;
20181;SDS011;10250;50.756;6.172;2022-07-22T06:58:41;12.73;;;3.50;;
20181;SDS011;10250;50.756;6.172;2022-07-22T07:00:41;13.50;;;3.83;;
20181;SDS011;10250;50.756;6.172;2022-07-22T07:02:42;14.07;;;3.97;;
20181;SDS011;10250;50.756;6.172;2022-07-22T07:04:43;14.27;;;4.20;;
20181;SDS011;10250;50.756;6.172;2022-07-22T07:06:45;16.07;;;4.60;;
20181;SDS011;10250;50.756;6.172;2022-07-22T07:08:46;13.60;;;4.60;;
20181;SDS011;10250;50.756;6.172;2022-07-22T07:10:46;14.17;;;4.43;;
20181;SDS011;10250;50.756;6.172;2022-07-22T07:12:47;14.70;;;4.57;;
20181;SDS011;10250;50.756;6.172;2022-07-22T07:14:47;15.90;;;4.53;;
20181;SDS011;10250;50.756;6.172;2022-07-22T07:16:48;13.43;;;3.93;;
20181;SDS011;10250;50.756;6.172;2022-07-22T07:18:49;14.17;;;4.63;;
20181;SDS011;10250;50.756;6.172;2022-07-22T07:20:49;14.90;;;4.97;;
20181;SDS011;10250;50.756;6.172;2022-07-22T07:22:50;17.20;;;5.43;;
20181;SDS011;10250;50.756;6.172;2022-07-22T07:24:51;16.10;;;5.60;;
20181;SDS011;10250;50.756;6.172;2022-07-22T07:26:51;16.60;;;5.43;;
20181;SDS011;10250;50.756;6.172;2022-07-22T07:28:52;15.30;;;5.07;;
20181;SDS011;10250;50.756;6.172;2022-07-22T07:30:53;17.00;;;5.40;;
20181;SDS011;10250;50.756;6.172;2022-07-22T07:32:53;19.67;;;5.87;;
20181;SDS011;10250;50.756;6.172;2022-07-22T07:34:54;18.87;;;5.90;;
20181;SDS011;10250;50.756;6.172;2022-07-22T07:36:54;17.60;;;5.67;;
20181;SDS011;10250;50.756;6.172;2022-07-22T07:38:55;16.47;;;5.53;;
20181;SDS011;10250;50.756;6.172;2022-07-22T07:40:56;16.80;;;5.40;;
20181;SDS011;10250;50.756;6.172;2022-07-22T07:42:57;15.87;;;5.30;;
20181;SDS011;10250;50.756;6.172;2022-07-22T07:44:57;15.77;;;5.10;;
20181;SDS011;10250;50.756;6.172;2022-07-22T07:46:58;17.23;;;5.73;;
20181;SDS011;10250;50.756;6.172;2022-07-22T07:48:58;18.50;;;5.20;;
20181;SDS011;10250;50.756;6.172;2022-07-22T07:50:59;18.07;;;5.60;;
20181;SDS011;10250;50.756;6.172;2022-07-22T07:53:00;16.43;;;5.40;;
20181;SDS011;10250;50.756;6.172;2022-07-22T07:55:01;14.87;;;4.80;;
20181;SDS011;10250;50.756;6.172;2022-07-22T07:57:01;17.00;;;5.77;;
20181;SDS011;10250;50.756;6.172;2022-07-22T07:59:02;16.87;;;5.57;;
20181;SDS011;10250;50.756;6.172;2022-07-22T08:01:03;15.53;;;5.30;;
20181;SDS011;10250;50.756;6.172;2022-07-22T08:03:04;19.80;;;6.23;;
20181;SDS011;10250;50.756;6.172;2022-07-22T08:05:05;16.00;;;5.73;;
20181;SDS011;10250;50.756;6.172;2022-07-22T08:07:07;17.33;;;5.47;;
20181;SDS011;10250;50.756;6.172;2022-07-22T08:09:08;17.97;;;6.43;;
20181;SDS011;10250;50.756;6.172;2022-07-22T08:11:10;21.93;;;5.93;;
20181;SDS011;10250;50.756;6.172;2022-07-22T08:13:11;18.30;;;6.03;;
20181;SDS011;10250;50.756;6.172;2022-07-22T08:15:11;16.90;;;6.20;;
20181;SDS011;10250;50.756;6.172;2022-07-22T08:17:12;18.30;;;6.63;;
20181;SDS011;10250;50.756;6.172;2022-07-22T08:19:13;17.77;;;6.50;;
20181;SDS011;10250;50.756;6.172;2022-07-22T08:21:13;17.03;;;6.27;;
20181;SDS011;10250;50.756;6.172;2022-07-22T08:23:14;17.53;;;6.30;;
20181;SDS011;10250;50.756;6.172;2022-07-22T08:25:15;18.17;;;5.97;;
20181;SDS011;10250;50.756;6.172;2022-07-22T08:27:16;18.50;;;5.93;;
20181;SDS011;10250;50.756;6.172;2022-07-22T08:29:17;15.73;;;5.90;;
20181;SDS011;10250;50.756;6.172;2022-07-22T08:31:17;17.13;;;5.77;;
20181;SDS011;10250;50.756;6.172;2022-07-22T08:33:18;18.47;;;6.00;;
20181;SDS011;10250;50.756;6.172;2022-07-22T08:35:19;18.20;;;6.23;;
20181;SDS011;10250;50.756;6.172;2022-07-22T08:37:20;17.83;;;6.37;;
20181;SDS011;10250;50.756;6.172;2022-07-22T08:39:20;17.80;;;6.57;;
20181;SDS011;10250;50.756;6.172;2022-07-22T08:41:21;16.43;;;6.00;;
20181;SDS011;10250;50.756;6.172;2022-07-22T08:43:24;15.20;;;5.17;;
20181;SDS011;10250;50.756;6.172;2022-07-22T08:45:25;17.23;;;6.00;;
20181;SDS011;10250;50.756;6.172;2022-07-22T08:47:27;16.17;;;6.00;;
20181;SDS011;10250;50.756;6.172;2022-07-22T08:49:27;16.30;;;5.90;;
20181;SDS011;10250;50.756;6.172;2022-07-22T08:51:28;17.17;;;5.53;;
20181;SDS011;10250;50.756;6.172;2022-07-22T08:53:29;16.17;;;5.57;;
20181;SDS011;10250;50.756;6.172;2022-07-22T08:55:29;15.40;;;5.67;;
20181;SDS011;10250;50.756;6.172;2022-07-22T08:57:30;17.10;;;5.63;;
20181;SDS011;10250;50.756;6.172;2022-07-22T08:59:31;16.90;;;6.00;;
20181;SDS011;10250;50.756;6.172;2022-07-22T09:01:31;18.13;;;6.03;;
20181;SDS011;10250;50.756;6.172;2022-07-22T09:03:33;18.50;;;6.03;;
20181;SDS011;10250;50.756;6.172;2022-07-22T09:05:43;20.13;;;6.07;;
20181;SDS011;10250;50.756;6.172;2022-07-22T09:07:44;16.67;;;5.40;;
20181;SDS011;10250;50.756;6.172;2022-07-22T09:09:46;17.23;;;6.07;;
20181;SDS011;10250;50.756;6.172;2022-07-22T09:11:47;15.50;;;5.27;;
20181;SDS011;10250;50.756;6.172;2022-07-22T09:13:49;19.53;;;6.27;;
20181;SDS011;10250;50.756;6.172;2022-07-22T09:15:52;17.03;;;5.60;;
20181;SDS011;10250;50.756;6.172;2022-07-22T09:17:54;18.30;;;6.30;;
20181;SDS011;10250;50.756;6.172;2022-07-22T09:21:57;17.73;;;5.83;;
20181;SDS011;10250;50.756;6.172;2022-07-22T09:23:58;18.17;;;6.43;;
20181;SDS011;10250;50.756;6.172;2022-07-22T09:25:58;18.13;;;6.30;;
20181;SDS011;10250;50.756;6.172;2022-07-22T09:30:06;17.20;;;6.47;;
20181;SDS011;10250;50.756;6.172;2022-07-22T09:32:11;18.03;;;6.23;;
20181;SDS011;10250;50.756;6.172;2022-07-22T09:34:11;18.23;;;6.53;;
20181;SDS011;10250;50.756;6.172;2022-07-22T09:36:30;18.13;;;5.93;;
20181;SDS011;10250;50.756;6.172;2022-07-22T09:38:31;15.00;;;5.30;;
20181;SDS011;10250;50.756;6.172;2022-07-22T09:40:34;16.53;;;5.60;;
20181;SDS011;10250;50.756;6.172;2022-07-22T09:42:46;17.10;;;5.27;;
20181;SDS011;10250;50.756;6.172;2022-07-22T09:44:51;16.23;;;5.40;;
20181;SDS011;10250;50.756;6.172;2022-07-22T09:46:53;16.30;;;5.67;;
20181;SDS011;10250;50.756;6.172;2022-07-22T09:48:54;16.40;;;5.83;;
20181;SDS011;10250;50.756;6.172;2022-07-22T09:50:55;16.03;;;5.70;;
20181;SDS011;10250;50.756;6.172;2022-07-22T09:52:57;16.33;;;5.70;;
20181;SDS011;10250;50.756;6.172;2022-07-22T09:54:59;16.37;;;5.60;;
20181;SDS011;10250;50.756;6.172;2022-07-22T09:57:01;16.87;;;5.23;;
20181;SDS011;10250;50.756;6.172;2022-07-22T09:59:01;15.50;;;5.00;;
20181;SDS011;10250;50.756;6.172;2022-07-22T10:01:04;15.43;;;4.77;;
20181;SDS011;10250;50.756;6.172;2022-07-22T10:03:06;16.67;;;5.70;;
20181;SDS011;10250;50.756;6.172;2022-07-22T10:05:11;15.47;;;5.27;;
20181;SDS011;10250;50.756;6.172;2022-07-22T10:07:13;15.23;;;5.03;;
20181;SDS011;10250;50.756;6.172;2022-07-22T10:09:14;18.47;;;5.90;;
20181;SDS011;10250;50.756;6.172;2022-07-22T10:11:17;16.07;;;4.93;;
20181;SDS011;10250;50.756;6.172;2022-07-22T10:13:18;16.13;;;5.17;;
20181;SDS011;10250;50.756;6.172;2022-07-22T10:15:19;14.70;;;4.53;;
20181;SDS011;10250;50.756;6.172;2022-07-22T10:17:21;16.63;;;5.67;;
20181;SDS011;10250;50.756;6.172;2022-07-22T10:19:22;15.37;;;5.33;;
20181;SDS011;10250;50.756;6.172;2022-07-22T10:21:33;16.97;;;5.27;;
20181;SDS011;10250;50.756;6.172;2022-07-22T10:23:34;15.20;;;4.60;;
20181;SDS011;10250;50.756;6.172;2022-07-22T10:25:48;16.00;;;5.33;;
20181;SDS011;10250;50.756;6.172;2022-07-22T10:28:02;16.87;;;4.87;;
20181;SDS011;10250;50.756;6.172;2022-07-22T10:30:04;17.70;;;5.87;;
20181;SDS011;10250;50.756;6.172;2022-07-22T10:34:18;15.87;;;4.77;;
20181;SDS011;10250;50.756;6.172;2022-07-22T10:36:32;14.97;;;5.00;;
20181;SDS011;10250;50.756;6.172;2022-07-22T10:38:35;16.87;;;4.83;;
20181;SDS011;10250;50.756;6.172;2022-07-22T10:40:46;16.83;;;5.50;;
20181;SDS011;10250;50.756;6.172;2022-07-22T10:44:59;15.03;;;4.70;;
20181;SDS011;10250;50.756;6.172;2022-07-22T10:47:02;15.53;;;4.50;;
20181;SDS011;10250;50.756;6.172;2022-07-22T10:49:02;13.77;;;4.13;;
20181;SDS011;10250;50.756;6.172;2022-07-22T10:53:11;17.40;;;4.87;;
20181;SDS011;10250;50.756;6.172;2022-07-22T10:57:30;15.87;;;5.07;;
20181;SDS011;10250;50.756;6.172;2022-07-22T10:59:31;15.80;;;4.73;;
20181;SDS011;10250;50.756;6.172;2022-07-22T11:01:32;16.17;;;4.53;;
20181;SDS011;10250;50.756;6.172;2022-07-22T11:03:33;17.97;;;5.03;;
20181;SDS011;10250;50.756;6.172;2022-07-22T11:05:35;14.97;;;4.17;;
20181;SDS011;10250;50.756;6.172;2022-07-22T11:07:42;14.33;;;4.37;;
20181;SDS011;10250;50.756;6.172;2022-07-22T11:09:47;15.20;;;4.87;;
20181;SDS011;10250;50.756;6.172;2022-07-22T11:11:52;15.43;;;4.47;;
20181;SDS011;10250;50.756;6.172;2022-07-22T11:13:53;15.17;;;4.43;;
20181;SDS011;10250;50.756;6.172;2022-07-22T11:15:54;19.13;;;4.20;;
20181;SDS011;10250;50.756;6.172;2022-07-22T11:17:57;15.70;;;4.80;;
20181;SDS011;10250;50.756;6.172;2022-07-22T11:19:58;14.17;;;4.23;;
20181;SDS011;10250;50.756;6.172;2022-07-22T11:21:59;14.97;;;4.33;;
20181;SDS011;10250;50.756;6.172;2022-07-22T11:24:05;15.27;;;4.43;;
20181;SDS011;10250;50.756;6.172;2022-07-22T11:26:08;16.73;;;4.53;;
20181;SDS011;10250;50.756;6.172;2022-07-22T11:28:13;14.43;;;4.77;;
20181;SDS011;10250;50.756;6.172;2022-07-22T11:30:13;14.97;;;4.47;;
20181;SDS011;10250;50.756;6.172;2022-07-22T11:32:14;15.47;;;4.97;;
20181;SDS011;10250;50.756;6.172;2022-07-22T11:34:15;14.67;;;4.80;;
20181;SDS011;10250;50.756;6.172;2022-07-22T11:36:16;13.67;;;4.57;;
20181;SDS011;10250;50.756;6.172;2022-07-22T11:38:17;16.00;;;4.63;;
20181;SDS011;10250;50.756;6.172;2022-07-22T11:40:17;13.97;;;4.60;;
20181;SDS011;10250;50.756;6.172;2022-07-22T11:42:18;12.80;;;4.20;;
20181;SDS011;10250;50.756;6.172;2022-07-22T11:44:19;17.63;;;5.07;;
20181;SDS011;10250;50.756;6.172;2022-07-22T11:46:21;14.73;;;4.60;;
20181;SDS011;10250;50.756;6.172;2022-07-22T11:48:23;15.03;;;4.63;;
20181;SDS011;10250;50.756;6.172;2022-07-22T11:50:30;13.77;;;4.73;;
20181;SDS011;10250;50.756;6.172;2022-07-22T11:52:31;13.70;;;4.10;;
20181;SDS011;10250;50.756;6.172;2022-07-22T11:54:31;13.60;;;4.03;;
20181;SDS011;10250;50.756;6.172;2022-07-22T11:56:32;14.80;;;4.37;;
20181;SDS011;10250;50.756;6.172;2022-07-22T11:58:37;13.90;;;4.07;;
20181;SDS011;10250;50.756;6.172;2022-07-22T12:00:40;15.33;;;4.60;;
20181;SDS011;10250;50.756;6.172;2022-07-22T12:02:41;13.73;;;3.70;;
20181;SDS011;10250;50.756;6.172;2022-07-22T12:04:42;14.47;;;4.17;;
20181;SDS011;10250;50.756;6.172;2022-07-22T12:06:45;15.20;;;4.47;;
20181;SDS011;10250;50.756;6.172;2022-07-22T12:08:51;13.77;;;4.50;;
20181;SDS011;10250;50.756;6.172;2022-07-22T12:10:54;14.83;;;4.63;;
20181;SDS011;10250;50.756;6.172;2022-07-22T12:12:56;14.43;;;4.67;;
20181;SDS011;10250;50.756;6.172;2022-07-22T12:14:57;15.37;;;5.00;;
20181;SDS011;10250;50.756;6.172;2022-07-22T12:17:08;14.53;;;5.03;;